San Francisco, CA (94103)

8:31 PM PDT on April 25, 2017 (GMT -0700)
Mission (at Bar and Burrito) | | Change Station

Elev 52 ft 37.77 °N, 122.42 °W | Updated 7 seconds ago

Partly Cloudy
Partly Cloudy
56.4 °F
Feels Like 56.4 °F
N
8.0
Wind Variable Wind from WNW
Gusts 0.0 mph

Today
High -- | Low -- °F
--% Chance of Precip.
Yesterday
High -- | Low -- °F
Precip. -- in
Pressure 30.11 in
Visibility 10.0 miles
Clouds Few 1500 ft
Few 4500 ft
Few 6500 ft
Dew Point 52 °F
Humidity 85%
Rainfall 0.00 in
Snow Depth Not available.
6:20 AM 7:54 PM
Waning Crescent, 0% visible
METAR KSFO 260256Z 28020KT 10SM FEW015 FEW045 FEW065 14/10 A3010 RMK AO2 PK WND 28026/0254 SLP194 T01390100 51006
Pressure 30.11 in
Visibility 10.0 miles
Clouds Few 1500 ft
Few 4500 ft
Few 6500 ft
Dew Point 52 °F
Humidity 85%
Rainfall 0.00 in
Snow Depth Not available.
6:20 AM 7:54 PM
Waning Crescent, 0% visible
METAR KSFO 260256Z 28020KT 10SM FEW015 FEW045 FEW065 14/10 A3010 RMK AO2 PK WND 28026/0254 SLP194 T01390100 51006

Get Severe Weather Alerts

Thanks for signing up!

Be on the lookout for a verification email in your inbox.

You'll start receiving the daily forecast at 8 AM.

×

10-Day Weather Forecast

Almanac

Astronomy

Apr. 25, 2017 Rise Set
Actual Time
Civil Twilight
Nautical Twilight
Astronomical Twilight
Moon
Length of Visible Light
Length of Day
Tomorrow will be .
, % of the Moon is Illuminated

Today's Extremes

State Highs State Lows

Community

WunderPhotos

WunderBlog® & News

Nearby

Air Quality

  Air Quality AQ Index Pollutant
Not available.

Snow Depth

Station Depth Elevation

Earthquake Activity

City Distance Mag. Time & Date
Minimum magnitude displayed is 2.5.

Coastal Water Temperatures

Place Temperature

Stations

Nearby Weather Stations

Station Location Temp. Windchill Dew Point Humidity Wind Precip. Elev Updated Type
                   

Watches & Warnings

There are currently no watches in effect.